Time;durP1;ratioP1;P1;durP2;ratioP2;P2;SDS_P1;SDS_P2;PMS_P1;PMS_P2;Temp;Humidity;BMP_temperature;BMP_pressure;BME280_temperature;BME280_humidity;BME280_pressure;Samples;Min_cycle;Max_cycle;Signal;HPM_P1;HPM_P2
2023/02/24 00:01:12;;;;;;;0.60;0.60;;;4.70;99.90;;;;;;5046426;28;20080;-81
2023/02/24 00:03:38;;;;;;;0.60;0.60;;;4.10;99.90;;;;;;5046273;28;20045;-81
2023/02/24 00:06:10;;;;;;;;;;;4.70;99.90;;;;;;5042170;28;20057;-81
2023/02/24 00:08:41;;;;;;;0.50;0.50;;;4.00;99.90;;;;;;5030322;28;19920;-82
2023/02/24 00:11:15;;;;;;;0.60;0.60;;;4.50;99.90;;;;;;5051656;28;20502;-82
2023/02/24 00:13:46;;;;;;;0.60;0.60;;;4.30;99.90;;;;;;5044025;28;20044;-82
2023/02/24 00:16:17;;;;;;;0.60;0.60;;;4.20;99.90;;;;;;5041415;28;20098;-82
2023/02/24 00:18:43;;;;;;;0.60;0.60;;;4.70;99.90;;;;;;5035639;28;20045;-83
2023/02/24 00:21:14;;;;;;;0.60;0.60;;;4.50;99.90;;;;;;5050542;28;20083;-83
2023/02/24 00:23:42;;;;;;;0.60;0.60;;;4.30;99.90;;;;;;5041849;28;20067;-82
2023/02/24 00:26:10;;;;;;;1.33;1.30;;;3.90;99.90;;;;;;5032690;28;20068;-82
2023/02/24 00:28:36;;;;;;;0.60;0.60;;;4.00;99.90;;;;;;5046765;28;20446;-81
2023/02/24 00:31:09;;;;;;;0.68;0.68;;;3.20;99.90;;;;;;5031209;28;20692;-80
2023/02/24 00:33:36;;;;;;;0.70;0.70;;;3.80;99.90;;;;;;5036280;28;20038;-80
2023/02/24 00:36:22;;;;;;;0.80;0.80;;;3.60;99.90;;;;;;5038213;28;20080;-81
2023/02/24 00:38:56;;;;;;;1.52;1.42;;;3.60;99.90;;;;;;5024142;28;20600;-81
2023/02/24 00:41:30;;;;;;;0.60;0.60;;;4.10;99.90;;;;;;5045096;28;20040;-80
2023/02/24 00:44:04;;;;;;;0.60;0.60;;;3.70;99.90;;;;;;5037254;28;20055;-81
2023/02/24 00:46:34;;;;;;;0.70;0.70;;;3.60;99.90;;;;;;5043292;28;20064;-80
2023/02/24 00:49:04;;;;;;;0.60;0.60;;;3.70;99.90;;;;;;5039768;28;20057;-80
2023/02/24 00:51:34;;;;;;;0.70;0.70;;;3.50;99.90;;;;;;5041034;28;20166;-81
2023/02/24 00:54:00;;;;;;;0.60;0.60;;;3.70;99.90;;;;;;5021465;28;20091;-80
2023/02/24 00:56:26;;;;;;;;;;;3.80;99.90;;;;;;5043533;28;20473;-80
2023/02/24 00:58:54;;;;;;;0.60;0.60;;;3.20;99.90;;;;;;5028521;28;20380;-80
2023/02/24 01:01:22;;;;;;;0.77;0.77;;;3.70;99.90;;;;;;5054170;28;20437;-80
2023/02/24 01:03:49;;;;;;;0.70;0.70;;;3.60;99.90;;;;;;5042007;28;20041;-81
2023/02/24 01:06:19;;;;;;;0.60;0.60;;;3.50;99.90;;;;;;5023111;28;20045;-80
2023/02/24 01:08:48;;;;;;;0.60;0.60;;;3.40;99.90;;;;;;5038463;28;20124;-81
2023/02/24 01:14:22;;;;;;;0.63;0.63;;;3.60;99.90;;;;;;5039162;28;20083;-82
2023/02/24 01:16:51;;;;;;;0.70;0.70;;;3.20;99.90;;;;;;5041146;28;20033;-81
2023/02/24 01:19:20;;;;;;;0.70;0.70;;;3.80;99.90;;;;;;5041325;28;20048;-81
2023/02/24 01:21:46;;;;;;;0.60;0.60;;;3.10;99.90;;;;;;5046469;28;20085;-79
2023/02/24 01:24:16;;;;;;;0.60;0.60;;;3.30;99.90;;;;;;5032650;28;20057;-79
2023/02/24 01:26:43;;;;;;;0.60;0.60;;;3.40;99.90;;;;;;5045388;28;20044;-81
2023/02/24 01:29:08;;;;;;;0.65;0.65;;;3.40;99.90;;;;;;5044675;28;20148;-80
2023/02/24 01:31:39;;;;;;;0.73;0.73;;;3.80;99.90;;;;;;5037313;28;20164;-80
2023/02/24 01:34:05;;;;;;;0.60;0.60;;;3.10;99.90;;;;;;5039909;28;20037;-80
2023/02/24 01:36:32;;;;;;;0.77;0.77;;;3.40;99.90;;;;;;5030105;28;20082;-81
2023/02/24 01:38:59;;;;;;;0.60;0.60;;;3.30;99.90;;;;;;5041153;28;20067;-81
2023/02/24 01:41:29;;;;;;;0.77;0.77;;;3.50;99.90;;;;;;5039495;28;20060;-81
2023/02/24 01:44:28;;;;;;;0.60;0.60;;;3.50;99.90;;;;;;5055759;28;20043;-81
2023/02/24 01:46:54;;;;;;;0.70;0.70;;;3.30;99.90;;;;;;5061733;28;20064;-82
2023/02/24 01:49:28;;;;;;;0.70;0.70;;;3.20;99.90;;;;;;5036378;28;20527;-82
2023/02/24 01:52:00;;;;;;;0.60;0.60;;;3.50;99.90;;;;;;5038272;28;20042;-82
2023/02/24 01:54:41;;;;;;;0.70;0.70;;;3.50;99.90;;;;;;5035592;28;20453;-82
2023/02/24 01:57:12;;;;;;;0.70;0.70;;;3.20;99.90;;;;;;5040241;28;20041;-82
2023/02/24 01:59:38;;;;;;;0.60;0.60;;;2.90;99.90;;;;;;5027373;28;20111;-82
2023/02/24 02:02:06;;;;;;;0.70;0.70;;;3.80;99.90;;;;;;5043284;28;20128;-82
2023/02/24 02:04:41;;;;;;;0.70;0.70;;;3.20;99.90;;;;;;5042350;28;20494;-81
2023/02/24 02:07:11;;;;;;;0.70;0.70;;;2.80;99.90;;;;;;5039623;28;20049;-81
2023/02/24 02:09:40;;;;;;;0.65;0.65;;;3.50;99.90;;;;;;5039674;28;20053;-82
2023/02/24 02:12:06;;;;;;;0.63;0.63;;;3.10;99.90;;;;;;5025071;28;20096;-81
2023/02/24 02:14:32;;;;;;;;;;;3.30;99.90;;;;;;5013886;28;20049;-82
2023/02/24 02:17:16;;;;;;;1.02;1.02;;;2.80;99.90;;;;;;5044375;28;20267;-82
2023/02/24 02:20:30;;;;;;;0.60;0.60;;;2.90;99.90;;;;;;5047104;28;20045;-82
2023/02/24 02:23:25;;;;;;;0.60;0.60;;;3.20;99.90;;;;;;5015218;28;20761;-79
2023/02/24 02:26:25;;;;;;;0.70;0.70;;;3.20;99.90;;;;;;5042885;28;20041;-80
2023/02/24 02:29:20;;;;;;;0.60;0.60;;;3.30;99.90;;;;;;5047602;28;20490;-80
2023/02/24 02:32:12;;;;;;;0.70;0.70;;;3.70;99.90;;;;;;5045252;28;20490;-80
2023/02/24 02:35:17;;;;;;;0.60;0.60;;;3.20;99.90;;;;;;5030683;28;20056;-79
2023/02/24 02:38:02;;;;;;;0.70;0.70;;;3.20;99.90;;;;;;5045587;28;20033;-81
2023/02/24 02:40:38;;;;;;;0.70;0.70;;;3.40;99.90;;;;;;5029269;28;20045;-81
2023/02/24 02:43:18;;;;;;;0.65;0.65;;;4.00;99.90;;;;;;5039109;28;20032;-81
2023/02/24 02:46:02;;;;;;;0.80;0.80;;;3.70;99.90;;;;;;5037288;28;20479;-81
2023/02/24 02:48:38;;;;;;;1.58;1.48;;;3.40;99.90;;;;;;5034446;28;20052;-80
2023/02/24 02:51:10;;;;;;;0.73;0.73;;;3.60;99.90;;;;;;5043094;28;20172;-80
2023/02/24 02:53:48;;;;;;;0.60;0.60;;;3.60;99.90;;;;;;5043275;28;20467;-82
2023/02/24 02:56:20;;;;;;;0.68;0.68;;;3.70;99.90;;;;;;5049491;28;20040;-81
2023/02/24 02:58:52;;;;;;;1.35;1.25;;;3.70;99.90;;;;;;5021900;28;20041;-83
2023/02/24 03:01:20;;;;;;;0.80;0.80;;;3.80;99.90;;;;;;5040512;28;20703;-81
2023/02/24 03:03:53;;;;;;;0.80;0.80;;;3.50;99.90;;;;;;5044383;28;20489;-80
2023/02/24 03:06:27;;;;;;;0.68;0.68;;;3.70;99.90;;;;;;5045250;28;20052;-80
2023/02/24 03:09:16;;;;;;;0.70;0.70;;;4.20;99.90;;;;;;5049436;28;20053;-80
2023/02/24 03:11:49;;;;;;;0.70;0.70;;;3.40;99.90;;;;;;5047181;28;20419;-81
2023/02/24 03:14:18;;;;;;;0.70;0.70;;;3.80;99.90;;;;;;5044564;28;20037;-81
2023/02/24 03:16:47;;;;;;;0.60;0.60;;;3.50;99.90;;;;;;5044888;28;20076;-83
2023/02/24 03:19:19;;;;;;;0.70;0.70;;;3.40;99.90;;;;;;5024885;28;20075;-81
2023/02/24 03:21:51;;;;;;;1.10;1.10;;;3.50;99.90;;;;;;5047796;28;20444;-81
2023/02/24 03:24:17;;;;;;;0.70;0.70;;;4.30;99.90;;;;;;5039477;28;20053;-82
2023/02/24 03:26:59;;;;;;;0.70;0.70;;;3.70;99.90;;;;;;5045776;28;20440;-82
2023/02/24 03:29:54;;;;;;;0.60;0.60;;;3.60;99.90;;;;;;5042765;28;20122;-83
2023/02/24 03:32:23;;;;;;;0.70;0.70;;;4.00;99.90;;;;;;5033776;28;20592;-81
2023/02/24 03:35:15;;;;;;;0.60;0.60;;;3.60;99.90;;;;;;5034650;28;20128;-82
2023/02/24 03:37:41;;;;;;;0.60;0.60;;;3.50;99.90;;;;;;5050735;28;20124;-80
2023/02/24 03:40:13;;;;;;;0.60;0.60;;;4.00;99.90;;;;;;5044921;28;20116;-82
2023/02/24 03:42:51;;;;;;;0.70;0.70;;;3.50;99.90;;;;;;5034045;28;20049;-80
2023/02/24 03:45:21;;;;;;;0.70;0.70;;;3.80;99.90;;;;;;5033130;28;20057;-79
2023/02/24 03:47:47;;;;;;;0.80;0.80;;;3.40;99.90;;;;;;5050522;28;20036;-83
2023/02/24 03:50:18;;;;;;;0.60;0.60;;;3.80;99.90;;;;;;5042714;28;20107;-80
2023/02/24 03:53:21;;;;;;;1.13;1.13;;;4.10;99.90;;;;;;5050632;28;20518;-83
2023/02/24 03:56:44;;;;;;;0.60;0.60;;;3.30;99.90;;;;;;5032919;28;20037;-79
2023/02/24 04:00:24;;;;;;;0.90;0.90;;;3.20;99.90;;;;;;4938591;28;20047;-80
2023/02/24 04:02:56;;;;;;;0.68;0.68;;;3.30;99.90;;;;;;5030056;28;20156;-82
2023/02/24 04:05:26;;;;;;;0.80;0.80;;;4.10;99.90;;;;;;5037392;28;20128;-79
2023/02/24 04:08:05;;;;;;;0.70;0.70;;;3.40;99.90;;;;;;5050225;28;20140;-80
2023/02/24 04:10:54;;;;;;;0.75;0.75;;;3.70;99.90;;;;;;5051157;28;20049;-82
2023/02/24 04:13:43;;;;;;;0.70;0.70;;;3.70;99.90;;;;;;5050403;28;20300;-84
2023/02/24 04:16:35;;;;;;;0.60;0.60;;;3.50;99.90;;;;;;5033459;28;20057;-83
2023/02/24 04:19:05;;;;;;;0.60;0.60;;;4.00;99.90;;;;;;5042689;28;20060;-83
2023/02/24 04:21:33;;;;;;;0.70;0.70;;;4.00;99.90;;;;;;5052694;28;20052;-80
2023/02/24 04:24:05;;;;;;;0.60;0.60;;;4.00;99.90;;;;;;5034540;28;20542;-81
2023/02/24 04:26:32;;;;;;;0.60;0.60;;;4.20;99.90;;;;;;5049839;28;20091;-83
2023/02/24 04:29:02;;;;;;;0.60;0.60;;;3.90;99.90;;;;;;5051302;28;20044;-83
2023/02/24 04:31:29;;;;;;;0.60;0.60;;;4.30;99.90;;;;;;5050652;28;20049;-82
2023/02/24 04:33:54;;;;;;;0.60;0.60;;;4.40;99.90;;;;;;5046292;28;20163;-80
2023/02/24 04:36:20;;;;;;;0.93;0.93;;;4.40;99.90;;;;;;5049926;28;20462;-81
2023/02/24 04:38:47;;;;;;;0.52;0.52;;;3.90;99.90;;;;;;5049427;28;20072;-83
2023/02/24 04:41:20;;;;;;;0.60;0.60;;;4.20;99.90;;;;;;5033490;28;20056;-82
2023/02/24 04:43:52;;;;;;;0.70;0.70;;;4.10;99.90;;;;;;5054385;28;20128;-83
2023/02/24 04:46:22;;;;;;;0.60;0.60;;;4.10;99.90;;;;;;5048272;28;20090;-82
2023/02/24 04:48:49;;;;;;;0.60;0.60;;;4.00;99.90;;;;;;5049766;28;20056;-82
2023/02/24 04:51:15;;;;;;;0.60;0.60;;;4.20;99.90;;;;;;5050126;28;20155;-83
2023/02/24 04:53:41;;;;;;;1.02;1.02;;;4.00;99.90;;;;;;5048076;28;20052;-83
2023/02/24 04:56:07;;;;;;;1.73;1.05;;;4.50;99.90;;;;;;5049821;28;20056;-83
2023/02/24 04:58:36;;;;;;;0.60;0.60;;;4.40;99.90;;;;;;5049445;28;20044;-83
2023/02/24 05:01:09;;;;;;;0.65;0.65;;;4.10;99.90;;;;;;5049483;28;20052;-82
2023/02/24 05:03:36;;;;;;;2.25;2.15;;;3.90;99.90;;;;;;5032052;28;20048;-80
2023/02/24 05:06:05;;;;;;;0.70;0.70;;;4.20;99.90;;;;;;5049462;28;20145;-82
2023/02/24 05:08:31;;;;;;;0.68;0.68;;;3.80;99.90;;;;;;5045373;28;20515;-81
2023/02/24 05:10:57;;;;;;;;;;;4.00;99.90;;;;;;5038913;28;20078;-80
2023/02/24 05:13:30;;;;;;;0.63;0.63;;;3.90;99.90;;;;;;5052729;28;19917;-80
2023/02/24 05:15:58;;;;;;;0.80;0.80;;;4.30;99.90;;;;;;5055686;28;20421;-80
2023/02/24 05:18:24;;;;;;;0.50;0.50;;;4.30;99.90;;;;;;5082892;28;20045;-81
2023/02/24 05:23:43;;;;;;;0.70;0.70;;;4.40;99.90;;;;;;5063223;28;20615;-82
2023/02/24 05:26:11;;;;;;;0.70;0.70;;;4.40;99.90;;;;;;5035670;28;20053;-80
2023/02/24 05:28:40;;;;;;;0.90;0.90;;;4.30;99.90;;;;;;5026523;28;20045;-79
2023/02/24 05:31:15;;;;;;;0.63;0.63;;;4.50;99.90;;;;;;5035639;28;20154;-80
2023/02/24 05:33:53;;;;;;;0.70;0.70;;;4.20;99.90;;;;;;5049064;28;20049;-80
2023/02/24 05:36:20;;;;;;;0.60;0.60;;;4.40;99.90;;;;;;5049155;28;20037;-82
2023/02/24 05:38:47;;;;;;;0.63;0.63;;;3.90;99.90;;;;;;5049715;28;20033;-82
2023/02/24 05:41:17;;;;;;;0.80;0.80;;;4.10;99.90;;;;;;5049275;28;20095;-81
2023/02/24 05:43:51;;;;;;;0.82;0.82;;;4.10;99.90;;;;;;5049350;28;20122;-81
2023/02/24 05:46:27;;;;;;;0.70;0.70;;;4.10;99.90;;;;;;5054034;28;20091;-80
2023/02/24 05:48:58;;;;;;;0.70;0.70;;;3.60;99.90;;;;;;5041101;28;20052;-82
2023/02/24 05:51:37;;;;;;;0.70;0.70;;;4.20;99.90;;;;;;5030169;28;20057;-81
2023/02/24 05:54:05;;;;;;;0.50;0.50;;;3.70;99.90;;;;;;5031222;28;20048;-80
2023/02/24 05:56:32;;;;;;;0.70;0.70;;;3.70;99.90;;;;;;5032406;28;20054;-81
2023/02/24 05:59:00;;;;;;;0.60;0.60;;;4.40;99.90;;;;;;5033369;28;20038;-83
2023/02/24 06:01:31;;;;;;;0.68;0.68;;;4.10;99.90;;;;;;5016114;28;20049;-81
2023/02/24 06:04:05;;;;;;;0.70;0.70;;;3.80;99.90;;;;;;5017408;28;20845;-83
2023/02/24 06:06:39;;;;;;;0.68;0.68;;;4.30;99.90;;;;;;5036410;28;20036;-80
2023/02/24 06:09:09;;;;;;;0.68;0.68;;;4.10;99.90;;;;;;5034367;28;20120;-82
2023/02/24 06:11:39;;;;;;;0.57;0.57;;;4.30;99.90;;;;;;5055625;28;20080;-85
2023/02/24 06:14:09;;;;;;;0.80;0.80;;;4.20;99.90;;;;;;5074117;28;20390;-86
2023/02/24 06:16:38;;;;;;;0.47;0.47;;;4.10;99.90;;;;;;5057636;28;20502;-86
2023/02/24 06:19:04;;;;;;;0.60;0.60;;;4.80;99.90;;;;;;5054212;28;20043;-84
2023/02/24 06:21:30;;;;;;;0.70;0.70;;;4.30;99.90;;;;;;5054118;28;20525;-85
2023/02/24 06:23:57;;;;;;;1.50;1.50;;;4.30;99.90;;;;;;5053588;28;20053;-84
2023/02/24 06:26:28;;;;;;;0.65;0.65;;;4.10;99.90;;;;;;5053879;28;20454;-85
2023/02/24 06:28:56;;;;;;;0.55;0.55;;;4.20;99.90;;;;;;5053107;28;20060;-81
2023/02/24 06:31:22;;;;;;;0.60;0.60;;;4.30;99.90;;;;;;5055300;28;20037;-85
2023/02/24 06:33:48;;;;;;;0.70;0.70;;;4.80;99.90;;;;;;5053590;28;20124;-83
2023/02/24 06:36:15;;;;;;;0.70;0.70;;;4.40;99.90;;;;;;5054450;28;20127;-85
2023/02/24 06:38:41;;;;;;;1.13;1.13;;;4.40;99.90;;;;;;5053250;28;20106;-83
2023/02/24 06:41:09;;;;;;;;;;;4.80;99.90;;;;;;5054225;28;20090;-84
2023/02/24 06:43:42;;;;;;;0.50;0.50;;;4.40;99.90;;;;;;5023196;28;20639;-83
2023/02/24 06:46:09;;;;;;;1.00;0.90;;;4.50;99.90;;;;;;5053634;28;20045;-84
2023/02/24 06:48:36;;;;;;;0.85;0.85;;;3.90;99.90;;;;;;5052208;28;20085;-80
2023/02/24 06:51:14;;;;;;;4.60;1.15;;;4.10;99.90;;;;;;5025651;28;20079;-82
2023/02/24 06:53:44;;;;;;;0.70;0.70;;;4.10;99.90;;;;;;5022227;28;20056;-81
2023/02/24 06:56:16;;;;;;;1.95;0.80;;;4.70;99.90;;;;;;5044079;28;20188;-82
2023/02/24 06:58:44;;;;;;;0.70;0.70;;;4.10;99.90;;;;;;5044037;28;20038;-81
2023/02/24 07:01:15;;;;;;;0.63;0.63;;;4.60;99.90;;;;;;5043709;28;20056;-86
2023/02/24 07:06:30;;;;;;;0.68;0.68;;;4.80;99.90;;;;;;5033673;28;20138;-84
2023/02/24 07:09:01;;;;;;;0.60;0.60;;;4.30;99.90;;;;;;5052032;28;20490;-85
2023/02/24 07:11:27;;;;;;;1.15;1.13;;;4.40;99.90;;;;;;5062037;28;20040;-87
2023/02/24 07:13:53;;;;;;;0.70;0.70;;;4.20;99.90;;;;;;5072202;28;20401;-85
2023/02/24 07:16:23;;;;;;;0.60;0.60;;;4.90;99.90;;;;;;5072565;28;20044;-82
2023/02/24 07:18:55;;;;;;;0.60;0.60;;;4.80;99.90;;;;;;5072360;28;20045;-85
2023/02/24 07:21:22;;;;;;;0.60;0.60;;;4.90;99.90;;;;;;5060483;28;20067;-86
2023/02/24 07:23:48;;;;;;;0.50;0.50;;;4.80;99.90;;;;;;5052890;28;20056;-86
2023/02/24 07:26:17;;;;;;;0.50;0.50;;;4.80;99.90;;;;;;5052523;28;20061;-86
2023/02/24 07:28:44;;;;;;;1.88;1.02;;;4.70;99.90;;;;;;5035232;28;20041;-86
2023/02/24 07:31:13;;;;;;;0.60;0.60;;;4.80;99.90;;;;;;5048457;28;20051;-86
2023/02/24 07:33:39;;;;;;;0.75;0.75;;;4.50;99.90;;;;;;5051568;28;20068;-84
2023/02/24 07:36:13;;;;;;;0.70;0.70;;;4.90;99.90;;;;;;5052192;28;20041;-84
2023/02/24 07:38:40;;;;;;;0.60;0.60;;;4.40;99.90;;;;;;5053457;28;20688;-83
2023/02/24 07:41:09;;;;;;;0.70;0.70;;;4.60;99.90;;;;;;5052265;28;20158;-87
2023/02/24 07:43:36;;;;;;;0.52;0.52;;;4.50;99.90;;;;;;5033933;28;20080;-87
2023/02/24 07:46:12;;;;;;;0.70;0.70;;;4.60;99.90;;;;;;5040774;28;20036;-82
2023/02/24 07:48:40;;;;;;;0.70;0.70;;;5.20;99.90;;;;;;5055057;28;20041;-84
2023/02/24 07:51:11;;;;;;;0.70;0.70;;;4.70;99.90;;;;;;5021468;28;20347;-86
2023/02/24 07:53:40;;;;;;;0.60;0.60;;;4.90;99.90;;;;;;5055175;28;20041;-85
2023/02/24 07:56:12;;;;;;;0.60;0.60;;;4.50;99.90;;;;;;5055706;28;20037;-81
2023/02/24 07:58:43;;;;;;;0.50;0.50;;;4.50;99.90;;;;;;5053990;28;20412;-87
2023/02/24 08:01:26;;;;;;;0.60;0.60;;;4.90;99.90;;;;;;5020542;28;20091;-81
2023/02/24 08:04:00;;;;;;;0.60;0.60;;;4.50;99.90;;;;;;5041653;28;20102;-86
2023/02/24 08:06:42;;;;;;;0.75;0.73;;;4.80;99.90;;;;;;5057338;28;20090;-84
2023/02/24 08:09:17;;;;;;;0.57;0.57;;;4.80;99.90;;;;;;5070363;28;20421;-84
2023/02/24 08:12:02;;;;;;;0.60;0.60;;;4.60;99.90;;;;;;5064159;28;20052;-87
2023/02/24 08:14:33;;;;;;;0.50;0.50;;;4.80;99.90;;;;;;5039907;28;20072;-87
2023/02/24 08:17:00;;;;;;;0.50;0.50;;;5.10;99.90;;;;;;5052446;28;20052;-84
2023/02/24 08:19:31;;;;;;;0.60;0.60;;;5.10;99.90;;;;;;5035549;28;20521;-87
2023/02/24 08:22:19;;;;;;;0.85;0.80;;;4.60;99.90;;;;;;5052967;28;20379;-86
2023/02/24 08:24:59;;;;;;;0.70;0.70;;;5.30;99.90;;;;;;5038653;28;20061;-81
2023/02/24 08:27:30;;;;;;;0.70;0.70;;;5.20;99.90;;;;;;5051517;28;20370;-84
2023/02/24 08:30:01;;;;;;;0.93;0.93;;;5.00;99.90;;;;;;5058121;28;20068;-82
2023/02/24 08:32:36;;;;;;;0.70;0.70;;;4.90;99.90;;;;;;5052372;28;20049;-85
2023/02/24 08:35:13;;;;;;;0.60;0.60;;;5.20;99.90;;;;;;5051225;28;20041;-85
2023/02/24 08:37:47;;;;;;;0.63;0.63;;;4.80;99.90;;;;;;5053084;28;20045;-83
2023/02/24 08:43:23;;;;;;;0.50;0.50;;;5.00;99.90;;;;;;5051506;28;20064;-84
2023/02/24 08:46:02;;;;;;;0.60;0.60;;;5.20;99.90;;;;;;5051119;28;20498;-83
2023/02/24 08:48:42;;;;;;;0.70;0.70;;;5.00;99.90;;;;;;5052730;28;20060;-86
2023/02/24 08:51:21;;;;;;;0.77;0.77;;;5.00;99.90;;;;;;5053303;28;20048;-83
2023/02/24 08:53:51;;;;;;;0.50;0.50;;;5.10;99.90;;;;;;5051533;28;20045;-83
2023/02/24 08:56:22;;;;;;;0.70;0.70;;;5.10;99.90;;;;;;5024875;28;20048;-86
2023/02/24 08:59:04;;;;;;;0.55;0.55;;;5.20;99.90;;;;;;5031972;28;20048;-82
2023/02/24 09:01:35;;;;;;;0.60;0.60;;;5.50;99.90;;;;;;5031365;28;20099;-86
2023/02/24 09:04:07;;;;;;;1.15;1.15;;;5.90;99.90;;;;;;5030518;28;20507;-82
2023/02/24 09:06:35;;;;;;;0.55;0.55;;;5.00;99.90;;;;;;5039537;28;20048;-84
2023/02/24 09:09:18;;;;;;;2.03;1.50;;;5.50;99.90;;;;;;5049755;28;20049;-85
2023/02/24 09:11:57;;;;;;;0.77;0.77;;;5.20;99.90;;;;;;5049436;28;20123;-83
2023/02/24 09:14:35;;;;;;;1.25;1.25;;;5.20;99.90;;;;;;5050488;28;20077;-85
2023/02/24 09:17:02;;;;;;;0.70;0.70;;;5.70;99.90;;;;;;5049978;28;20055;-86
2023/02/24 09:22:31;;;;;;;0.70;0.70;;;5.50;99.90;;;;;;5050765;28;20083;-83
2023/02/24 09:25:20;;;;;;;0.60;0.60;;;5.40;99.90;;;;;;5050144;28;20118;-82
2023/02/24 09:27:51;;;;;;;0.60;0.60;;;5.60;99.90;;;;;;5057811;28;20429;-87
2023/02/24 09:30:37;;;;;;;0.52;0.52;;;5.70;99.90;;;;;;5055889;28;20122;-86
2023/02/24 09:33:16;;;;;;;0.73;0.73;;;5.90;99.90;;;;;;5056133;28;20047;-87
2023/02/24 09:36:11;;;;;;;0.50;0.50;;;5.70;99.90;;;;;;5055125;28;20056;-84
2023/02/24 09:41:55;;;;;;;0.60;0.60;;;6.00;99.90;;;;;;5054784;28;20132;-86
2023/02/24 09:44:43;;;;;;;0.50;0.50;;;5.90;99.90;;;;;;5058805;28;20052;-86
2023/02/24 09:50:59;;;;;;;0.50;0.50;;;6.00;99.90;;;;;;4997441;28;20050;-83
2023/02/24 09:53:37;;;;;;;0.50;0.50;;;6.20;99.90;;;;;;4997403;28;20407;-86
2023/02/24 09:56:35;;;;;;;0.40;0.40;;;6.80;99.90;;;;;;5053128;28;20064;-82
2023/02/24 09:59:24;;;;;;;0.40;0.40;;;6.50;99.90;;;;;;5046562;28;20052;-87
2023/02/24 10:02:26;;;;;;;0.60;0.60;;;6.50;99.90;;;;;;5053923;28;20059;-83
2023/02/24 10:05:32;;;;;;;0.47;0.47;;;6.70;99.90;;;;;;5053881;28;20414;-84
2023/02/24 10:07:59;;;;;;;0.60;0.60;;;6.80;99.90;;;;;;5023625;28;20092;-86
2023/02/24 10:10:29;;;;;;;0.60;0.60;;;7.00;99.90;;;;;;5038739;28;20090;-87
2023/02/24 10:13:12;;;;;;;0.60;0.60;;;7.20;99.90;;;;;;5073706;28;20044;-83
2023/02/24 10:18:27;;;;;;;0.50;0.50;;;7.30;99.90;;;;;;5071469;28;20124;-85
2023/02/24 10:21:29;;;;;;;0.60;0.60;;;7.60;99.90;;;;;;5053210;28;20037;-84
2023/02/24 10:24:15;;;;;;;0.93;0.88;;;7.70;99.90;;;;;;5025536;28;20048;-83
2023/02/24 10:26:58;;;;;;;0.50;0.50;;;7.70;99.90;;;;;;5053640;28;20045;-80
2023/02/24 10:29:59;;;;;;;0.50;0.50;;;8.00;99.90;;;;;;5047415;28;20386;-82
2023/02/24 10:32:45;;;;;;;1.05;1.05;;;7.70;99.90;;;;;;5041230;28;20073;-84
2023/02/24 10:35:18;;;;;;;0.50;0.50;;;7.80;99.90;;;;;;5053678;28;20049;-81
2023/02/24 10:37:44;;;;;;;1.00;1.00;;;8.00;99.90;;;;;;5036794;28;20051;-84
2023/02/24 10:40:11;;;;;;;;;;;7.70;99.90;;;;;;5053611;28;20072;-79
2023/02/24 10:42:47;;;;;;;1.13;0.82;;;7.70;99.90;;;;;;5052368;28;19920;-82
2023/02/24 10:45:22;;;;;;;0.50;0.50;;;7.80;99.90;;;;;;5052772;28;20079;-83
2023/02/24 10:47:56;;;;;;;0.50;0.50;;;7.40;99.90;;;;;;5067374;28;20441;-83
2023/02/24 10:50:25;;;;;;;0.50;0.50;;;7.70;99.90;;;;;;5065855;28;20129;-86
2023/02/24 10:59:29;;;;;;;0.50;0.50;;;8.10;99.90;;;;;;5052697;28;20041;-83
2023/02/24 11:01:39;;;;;;;0.50;0.50;;;8.10;99.90;;;;;;5055843;28;20135;-84
2023/02/24 11:07:23;;;;;;;0.65;0.65;;;7.90;99.90;;;;;;5086435;28;20052;-83
2023/02/24 11:10:10;;;;;;;0.60;0.60;;;8.00;99.90;;;;;;5069192;28;20045;-84
2023/02/24 11:18:24;;;;;;;0.47;0.47;;;7.90;99.90;;;;;;5036286;28;20138;-83
2023/02/24 11:21:02;;;;;;;0.50;0.50;;;7.80;99.90;;;;;;5052313;28;20461;-84
2023/02/24 11:23:44;;;;;;;1.00;1.00;;;8.00;99.90;;;;;;5051049;28;20234;-81
2023/02/24 11:26:30;;;;;;;0.32;0.32;;;8.20;99.90;;;;;;5051479;28;20049;-80
2023/02/24 11:29:16;;;;;;;1.08;1.08;;;8.20;99.90;;;;;;5051694;28;20055;-84
2023/02/24 11:31:55;;;;;;;1.30;1.30;;;8.20;99.90;;;;;;5045219;28;20150;-82
2023/02/24 11:34:48;;;;;;;0.85;0.85;;;8.50;99.90;;;;;;5051006;28;20513;-81
2023/02/24 11:37:33;;;;;;;0.55;0.55;;;8.40;99.90;;;;;;5051572;28;20387;-81
2023/02/24 11:40:07;;;;;;;0.60;0.60;;;8.40;99.90;;;;;;5053239;28;20064;-85
2023/02/24 11:42:51;;;;;;;6.50;1.50;;;8.40;99.90;;;;;;5050248;28;20484;-81
2023/02/24 11:45:38;;;;;;;0.60;0.60;;;8.40;99.90;;;;;;5032718;28;20091;-87
2023/02/24 11:48:18;;;;;;;1.02;1.02;;;8.60;99.90;;;;;;5032672;28;20055;-81
2023/02/24 11:51:04;;;;;;;0.50;0.50;;;8.80;99.90;;;;;;5031656;28;20046;-86
2023/02/24 11:53:48;;;;;;;0.50;0.50;;;8.70;99.90;;;;;;5038528;28;20049;-86
2023/02/24 11:56:21;;;;;;;0.65;0.65;;;8.80;99.90;;;;;;5036594;28;20485;-85
2023/02/24 11:59:05;;;;;;;0.40;0.40;;;8.40;99.90;;;;;;5020204;28;20103;-86
2023/02/24 12:02:08;;;;;;;0.73;0.73;;;7.60;99.90;;;;;;5016585;28;20049;-88
2023/02/24 12:04:52;;;;;;;0.60;0.60;;;7.00;99.90;;;;;;5034282;28;20049;-85
2023/02/24 12:07:26;;;;;;;0.50;0.50;;;6.80;99.90;;;;;;5032277;28;20356;-85
2023/02/24 12:09:59;;;;;;;0.60;0.60;;;7.00;99.90;;;;;;5033036;28;20048;-85
2023/02/24 12:12:30;;;;;;;0.60;0.60;;;7.10;99.90;;;;;;5066079;28;20064;-85
2023/02/24 12:15:18;;;;;;;0.60;0.60;;;6.70;99.90;;;;;;5065318;28;20418;-86
2023/02/24 12:18:14;;;;;;;0.50;0.50;;;6.90;99.90;;;;;;5051269;28;20052;-86
2023/02/24 12:20:47;;;;;;;0.98;0.98;;;6.90;99.90;;;;;;5037689;28;20129;-83
2023/02/24 12:23:21;;;;;;;0.47;0.47;;;6.60;99.90;;;;;;5050584;28;20067;-85
2023/02/24 12:26:18;;;;;;;0.70;0.70;;;6.60;99.90;;;;;;5050752;28;20052;-85
2023/02/24 12:29:21;;;;;;;0.60;0.60;;;6.30;99.90;;;;;;5047389;28;20079;-83
2023/02/24 12:32:03;;;;;;;3.47;2.47;;;6.90;99.90;;;;;;5021858;28;20056;-87
2023/02/24 12:34:50;;;;;;;0.60;0.60;;;7.10;99.90;;;;;;5051527;28;20044;-86
2023/02/24 12:37:33;;;;;;;0.50;0.50;;;7.30;99.90;;;;;;5040338;28;20107;-84
2023/02/24 12:40:22;;;;;;;0.60;0.60;;;7.20;99.90;;;;;;5032309;28;20041;-84
2023/02/24 12:43:17;;;;;;;0.60;0.60;;;7.20;99.90;;;;;;5031461;28;20502;-86
2023/02/24 12:45:59;;;;;;;0.50;0.50;;;7.20;99.90;;;;;;5031267;28;20045;-83
2023/02/24 12:48:50;;;;;;;0.57;0.57;;;7.60;99.90;;;;;;5031022;28;20037;-83
2023/02/24 12:51:48;;;;;;;4.13;0.90;;;7.70;99.90;;;;;;5030713;28;20049;-85
2023/02/24 12:54:38;;;;;;;0.40;0.40;;;8.00;99.90;;;;;;5019598;28;20546;-83
2023/02/24 12:57:10;;;;;;;0.55;0.55;;;8.00;99.90;;;;;;5038700;28;20112;-80
2023/02/24 12:59:40;;;;;;;0.40;0.40;;;8.30;99.90;;;;;;5050737;28;20044;-85
2023/02/24 13:02:44;;;;;;;0.70;0.70;;;8.10;99.90;;;;;;5066541;28;20053;-83
2023/02/24 13:05:32;;;;;;;0.60;0.60;;;7.80;99.90;;;;;;5049437;28;20132;-85
2023/02/24 13:08:13;;;;;;;0.60;0.60;;;8.00;99.90;;;;;;5049685;28;20048;-85
2023/02/24 13:10:59;;;;;;;0.50;0.50;;;8.00;99.90;;;;;;5053098;28;20040;-83
2023/02/24 13:14:15;;;;;;;0.40;0.40;;;8.00;99.90;;;;;;5069981;28;20098;-82
2023/02/24 13:16:41;;;;;;;0.55;0.55;;;7.90;99.90;;;;;;5026240;28;20048;-86
2023/02/24 13:19:19;;;;;;;0.60;0.60;;;8.00;99.90;;;;;;5037075;28;20048;-81
2023/02/24 13:22:15;;;;;;;0.70;0.70;;;7.90;99.90;;;;;;5051001;28;20051;-84
2023/02/24 13:24:54;;;;;;;0.55;0.55;;;7.80;99.90;;;;;;5039015;28;20135;-82
2023/02/24 13:27:28;;;;;;;0.50;0.50;;;7.60;99.90;;;;;;5051950;28;20045;-81
2023/02/24 13:30:19;;;;;;;0.50;0.50;;;7.60;99.90;;;;;;5052825;28;20049;-80
2023/02/24 13:32:58;;;;;;;0.50;0.50;;;7.60;99.90;;;;;;5036204;28;20087;-84
2023/02/24 13:35:23;;;;;;;0.55;0.55;;;7.50;99.90;;;;;;5049476;28;20037;-83
2023/02/24 13:37:50;;;;;;;2.45;1.40;;;7.40;99.90;;;;;;5049501;28;20040;-83
2023/02/24 13:40:21;;;;;;;0.40;0.40;;;7.10;99.90;;;;;;5049348;28;20049;-80
2023/02/24 13:42:56;;;;;;;0.60;0.60;;;7.10;99.90;;;;;;5049675;28;20073;-83
2023/02/24 13:45:34;;;;;;;0.50;0.50;;;7.20;99.90;;;;;;5048302;28;20071;-81
2023/02/24 13:48:36;;;;;;;0.40;0.40;;;6.80;99.90;;;;;;5049039;28;20086;-82
2023/02/24 13:51:24;;;;;;;0.40;0.40;;;6.80;99.90;;;;;;5048487;28;20080;-82
2023/02/24 13:53:53;;;;;;;0.50;0.50;;;7.20;99.90;;;;;;5049425;28;20049;-83
2023/02/24 13:56:43;;;;;;;0.60;0.60;;;7.20;99.90;;;;;;5032538;28;20045;-83
2023/02/24 13:59:15;;;;;;;0.50;0.50;;;7.30;99.90;;;;;;5049145;28;20095;-85
2023/02/24 14:01:57;;;;;;;0.50;0.50;;;7.50;99.90;;;;;;5029699;28;20044;-85
2023/02/24 14:04:26;;;;;;;0.50;0.50;;;7.00;99.90;;;;;;5030125;28;20049;-86
2023/02/24 14:06:55;;;;;;;0.60;0.60;;;7.00;99.90;;;;;;5016913;28;20580;-85
2023/02/24 14:09:31;;;;;;;0.50;0.50;;;6.40;99.90;;;;;;5049574;28;20040;-83
2023/02/24 14:12:14;;;;;;;0.43;0.43;;;6.50;99.90;;;;;;5033878;28;20490;-83
2023/02/24 14:14:42;;;;;;;0.50;0.50;;;7.00;99.90;;;;;;5049465;28;20772;-83
2023/02/24 14:17:32;;;;;;;0.50;0.50;;;7.00;99.90;;;;;;5051231;28;20045;-81
2023/02/24 14:20:10;;;;;;;0.50;0.50;;;7.30;99.90;;;;;;5035874;28;20037;-81
2023/02/24 14:23:19;;;;;;;0.50;0.50;;;7.40;99.90;;;;;;5052741;28;20055;-80